createdAt,value
2022-10-12T00:00:45.513Z,11.09
2022-10-12T00:03:13.548Z,11.06
2022-10-12T00:05:42.659Z,11.07
2022-10-12T00:08:10.504Z,11.08
2022-10-12T00:10:43.130Z,11.03
2022-10-12T00:13:12.609Z,11.07
2022-10-12T00:15:41.675Z,11.17
2022-10-12T00:18:10.167Z,11.23
2022-10-12T00:20:38.300Z,11.23
2022-10-12T00:23:07.336Z,11.25
2022-10-12T00:25:39.286Z,11.19
2022-10-12T00:28:08.149Z,11.21
2022-10-12T00:30:40.764Z,11.29
2022-10-12T00:33:08.657Z,11.40
2022-10-12T00:35:36.573Z,11.36
2022-10-12T00:38:04.556Z,11.33
2022-10-12T00:40:32.495Z,11.38
2022-10-12T00:43:00.402Z,11.48
2022-10-12T00:45:28.684Z,11.46
2022-10-12T00:48:00.787Z,11.50
2022-10-12T00:50:32.344Z,11.52
2022-10-12T00:53:04.830Z,11.47
2022-10-12T00:55:37.015Z,11.43
2022-10-12T00:58:06.939Z,11.48
2022-10-12T01:00:35.364Z,11.41
2022-10-12T01:03:07.307Z,11.44
2022-10-12T01:05:35.486Z,11.45
2022-10-12T01:08:03.823Z,11.36
2022-10-12T01:10:31.861Z,11.28
2022-10-12T01:13:00.617Z,11.32
2022-10-12T01:15:34.695Z,11.33
2022-10-12T01:18:12.671Z,11.31
2022-10-12T01:20:59.752Z,11.36
2022-10-12T01:23:57.641Z,11.33
2022-10-12T01:26:52.689Z,11.29
2022-10-12T01:29:35.815Z,11.22
2022-10-12T01:32:12.739Z,11.27
2022-10-12T01:34:47.212Z,11.29
2022-10-12T01:37:20.968Z,11.24
2022-10-12T01:39:54.588Z,11.28
2022-10-12T01:42:27.809Z,11.31
2022-10-12T01:45:03.504Z,11.36
2022-10-12T01:47:33.868Z,11.40
2022-10-12T01:50:02.993Z,11.43
2022-10-12T01:52:32.964Z,11.44
2022-10-12T01:55:20.773Z,11.50
2022-10-12T01:58:05.248Z,11.49
2022-10-12T02:00:39.188Z,11.53
2022-10-12T02:03:17.451Z,11.54
2022-10-12T02:05:49.311Z,11.55
2022-10-12T02:08:24.349Z,11.66
2022-10-12T02:10:57.852Z,11.70
2022-10-12T02:13:28.338Z,11.67
2022-10-12T02:15:57.508Z,11.77
2022-10-12T02:18:29.742Z,11.81
2022-10-12T02:21:00.641Z,11.80
2022-10-12T02:23:30.097Z,11.88
2022-10-12T02:25:59.999Z,11.98
2022-10-12T02:28:31.156Z,11.99
2022-10-12T02:31:03.618Z,11.93
2022-10-12T02:33:39.085Z,11.94
2022-10-12T02:36:12.822Z,11.94
2022-10-12T02:38:46.491Z,11.95
2022-10-12T02:41:20.298Z,12.00
2022-10-12T02:43:53.363Z,12.06
2022-10-12T02:46:25.575Z,12.02
2022-10-12T02:48:57.137Z,11.99
2022-10-12T02:51:27.312Z,11.96
2022-10-12T02:53:55.319Z,12.05
2022-10-12T02:56:23.439Z,12.08
2022-10-12T02:58:51.280Z,12.13
2022-10-12T03:01:19.176Z,12.14
2022-10-12T03:03:47.311Z,12.22
2022-10-12T03:06:16.568Z,12.27
2022-10-12T03:08:44.398Z,12.20
2022-10-12T03:11:14.922Z,12.18
2022-10-12T03:13:42.839Z,12.28
2022-10-12T03:16:12.767Z,12.28
2022-10-12T03:18:41.197Z,12.30
2022-10-12T03:21:09.567Z,12.32
2022-10-12T03:23:39.017Z,12.31
2022-10-12T03:26:07.588Z,12.30
2022-10-12T03:28:36.512Z,12.31
2022-10-12T03:31:05.223Z,12.28
2022-10-12T03:33:33.319Z,12.29
2022-10-12T03:36:01.268Z,12.34
2022-10-12T03:38:29.127Z,12.32
2022-10-12T03:41:01.766Z,12.34
2022-10-12T03:43:32.134Z,12.32
2022-10-12T03:46:00.029Z,12.37
2022-10-12T03:48:27.865Z,12.36
2022-10-12T03:50:55.735Z,12.39
2022-10-12T03:53:23.692Z,12.39
2022-10-12T03:55:51.530Z,12.39
2022-10-12T03:58:20.695Z,12.42
2022-10-12T04:00:48.904Z,12.44
2022-10-12T04:03:16.748Z,12.42
2022-10-12T04:05:44.597Z,12.39
2022-10-12T04:08:12.543Z,12.44
2022-10-12T04:10:40.396Z,12.46
2022-10-12T04:13:08.223Z,12.52
2022-10-12T04:15:37.458Z,12.56
2022-10-12T04:18:05.467Z,12.56
2022-10-12T04:20:33.414Z,12.45
2022-10-12T04:23:01.564Z,12.47
2022-10-12T04:25:30.352Z,12.46
2022-10-12T04:27:58.439Z,12.44
2022-10-12T04:30:26.655Z,12.51
2022-10-12T04:32:56.566Z,12.53
2022-10-12T04:35:24.432Z,12.49
2022-10-12T04:37:52.538Z,12.43
2022-10-12T04:40:20.459Z,12.43
2022-10-12T04:42:48.345Z,12.35
2022-10-12T04:45:16.499Z,12.37
2022-10-12T04:47:44.580Z,12.36
2022-10-12T04:50:13.957Z,12.33
2022-10-12T04:52:41.962Z,12.27
2022-10-12T04:55:10.944Z,12.22
2022-10-12T04:57:39.129Z,12.19
2022-10-12T05:00:08.306Z,12.17
2022-10-12T05:02:36.427Z,12.09
2022-10-12T05:05:04.536Z,12.01
2022-10-12T05:07:33.951Z,11.95
2022-10-12T05:10:01.928Z,11.96
2022-10-12T05:12:29.838Z,11.92
2022-10-12T05:14:57.835Z,11.86
2022-10-12T05:17:25.846Z,11.81
2022-10-12T05:19:54.336Z,11.76
2022-10-12T05:22:22.299Z,11.63
2022-10-12T05:24:53.913Z,11.58
2022-10-12T05:27:22.074Z,11.60
2022-10-12T05:29:50.074Z,11.61
2022-10-12T05:32:18.249Z,11.53
2022-10-12T05:34:46.197Z,11.45
2022-10-12T05:37:14.112Z,11.41
2022-10-12T05:39:41.965Z,11.36
2022-10-12T05:42:11.675Z,11.40
2022-10-12T05:44:39.678Z,11.36
2022-10-12T05:47:07.725Z,11.34
2022-10-12T05:49:35.748Z,11.28
2022-10-12T05:52:04.168Z,11.31
2022-10-12T05:54:32.199Z,11.30
2022-10-12T05:57:00.194Z,11.29
2022-10-12T05:59:29.509Z,11.24
2022-10-12T06:01:57.797Z,11.24
2022-10-12T06:04:25.820Z,11.28
2022-10-12T06:06:53.872Z,11.27
2022-10-12T06:09:21.897Z,11.25
2022-10-12T06:11:50.390Z,11.24
2022-10-12T06:14:18.377Z,11.25
2022-10-12T06:16:51.089Z,11.27
2022-10-12T06:19:22.445Z,11.27
2022-10-12T06:21:50.357Z,11.29
2022-10-12T06:24:18.196Z,11.33
2022-10-12T06:26:46.188Z,11.38
2022-10-12T06:29:14.218Z,11.38
2022-10-12T06:31:42.326Z,11.37
2022-10-12T06:34:11.705Z,11.36
2022-10-12T06:36:39.699Z,11.43
2022-10-12T06:39:08.116Z,11.51
2022-10-12T06:41:36.338Z,11.49
2022-10-12T06:44:04.325Z,11.58
2022-10-12T06:46:32.444Z,11.65
2022-10-12T06:49:00.574Z,11.70
2022-10-12T06:51:29.919Z,11.71
2022-10-12T06:53:57.841Z,11.72
2022-10-12T06:56:25.961Z,11.74
2022-10-12T06:58:56.906Z,11.83
2022-10-12T07:01:24.868Z,11.86
2022-10-12T07:03:55.058Z,11.90
2022-10-12T07:06:26.397Z,12.00
2022-10-12T07:08:56.825Z,12.06
2022-10-12T07:11:24.791Z,12.11
2022-10-12T07:13:52.738Z,12.18
2022-10-12T07:16:21.001Z,12.19
2022-10-12T07:18:49.428Z,12.22
2022-10-12T07:21:17.769Z,12.24
2022-10-12T07:23:46.352Z,12.34
2022-10-12T07:26:15.788Z,12.37
2022-10-12T07:28:43.785Z,12.46
2022-10-12T07:31:11.993Z,12.51
2022-10-12T07:33:39.998Z,12.53
2022-10-12T07:36:21.112Z,12.59
2022-10-12T07:38:50.096Z,12.68
2022-10-12T07:41:19.500Z,12.73
2022-10-12T07:43:47.507Z,12.77
2022-10-12T07:46:15.578Z,12.89
2022-10-12T07:48:47.482Z,12.95
2022-10-12T07:51:18.116Z,13.01
2022-10-12T07:53:46.186Z,13.07
2022-10-12T07:56:16.300Z,13.13
2022-10-12T07:58:50.102Z,13.23
2022-10-12T08:01:19.283Z,13.21
2022-10-12T08:03:47.253Z,13.28
2022-10-12T08:06:17.249Z,13.36
2022-10-12T08:08:46.192Z,13.42
2022-10-12T08:11:14.641Z,13.53
2022-10-12T08:13:43.417Z,13.64
2022-10-12T08:16:15.498Z,13.67
2022-10-12T08:18:44.517Z,13.72
2022-10-12T08:21:15.231Z,13.77
2022-10-12T08:27:33.705Z,13.87
2022-10-12T08:33:43.923Z,14.00
2022-10-12T08:36:12.451Z,14.08
2022-10-12T08:38:40.605Z,14.17
2022-10-12T08:41:19.856Z,14.24
2022-10-12T08:43:57.976Z,14.30
2022-10-12T08:46:28.098Z,14.37
2022-10-12T08:49:02.881Z,14.45
2022-10-12T08:51:34.863Z,14.52
2022-10-12T08:54:07.852Z,14.57
2022-10-12T08:56:36.333Z,14.63
2022-10-12T08:59:04.482Z,14.72
2022-10-12T09:01:37.545Z,14.76
2022-10-12T09:04:18.193Z,14.78
2022-10-12T09:06:51.105Z,14.79
2022-10-12T09:09:44.027Z,14.79
2022-10-12T09:12:28.323Z,14.89
2022-10-12T09:15:01.532Z,14.90
2022-10-12T09:17:34.011Z,14.94
2022-10-12T09:20:08.353Z,15.03
2022-10-12T09:22:36.624Z,15.10
2022-10-12T09:25:05.030Z,15.15
2022-10-12T09:27:33.078Z,15.21
2022-10-12T09:30:05.423Z,15.27
2022-10-12T09:32:59.722Z,15.34
2022-10-12T09:35:29.346Z,15.39
2022-10-12T09:37:57.234Z,15.36
2022-10-12T09:40:28.840Z,15.43
2022-10-12T09:42:59.324Z,15.50
2022-10-12T09:45:27.542Z,15.45
2022-10-12T09:48:13.648Z,15.50
2022-10-12T09:50:46.106Z,15.58
2022-10-12T09:53:25.249Z,15.71
2022-10-12T09:55:55.211Z,15.66
2022-10-12T09:58:23.531Z,15.70
2022-10-12T10:01:13.762Z,15.80
2022-10-12T10:03:41.693Z,15.93
2022-10-12T10:06:10.989Z,15.99
2022-10-12T10:08:42.976Z,16.02
2022-10-12T10:11:20.620Z,15.99
2022-10-12T10:13:52.153Z,15.94
2022-10-12T10:16:23.042Z,16.02
2022-10-12T10:18:56.567Z,16.00
2022-10-12T10:21:33.124Z,16.02
2022-10-12T10:24:03.055Z,16.10
2022-10-12T10:26:51.197Z,16.19
2022-10-12T10:29:31.882Z,16.18
2022-10-12T10:32:23.689Z,16.19
2022-10-12T10:35:02.693Z,16.25
2022-10-12T10:37:35.394Z,16.27
2022-10-12T10:40:04.121Z,16.24
2022-10-12T10:42:33.879Z,16.21
2022-10-12T10:45:04.321Z,16.29
2022-10-12T10:47:34.743Z,16.28
2022-10-12T10:50:04.664Z,16.31
2022-10-12T10:52:36.494Z,16.47
2022-10-12T10:55:19.846Z,16.52
2022-10-12T10:57:58.057Z,16.48
2022-10-12T11:00:38.509Z,16.54
2022-10-12T11:03:13.238Z,16.57
2022-10-12T11:05:45.840Z,16.67
2022-10-12T11:08:20.615Z,16.67
2022-10-12T11:10:53.956Z,16.59
2022-10-12T11:13:25.922Z,16.60
2022-10-12T11:15:58.794Z,16.59
2022-10-12T11:18:32.220Z,16.60
2022-10-12T11:21:05.902Z,16.61
2022-10-12T11:23:43.498Z,16.68
2022-10-12T11:26:20.343Z,16.82
2022-10-12T11:28:48.454Z,16.83
2022-10-12T11:31:21.617Z,16.88
2022-10-12T11:33:50.613Z,16.93
2022-10-12T11:36:22.777Z,16.94
2022-10-12T11:38:56.679Z,16.75
2022-10-12T11:41:35.555Z,16.83
2022-10-12T11:44:08.742Z,16.81
2022-10-12T11:46:41.763Z,16.83
2022-10-12T11:49:16.382Z,16.74
2022-10-12T11:51:48.890Z,16.80
2022-10-12T11:54:28.292Z,16.87
2022-10-12T11:56:59.970Z,16.86
2022-10-12T11:59:33.554Z,16.90
2022-10-12T12:02:17.707Z,16.91
2022-10-12T12:04:47.235Z,16.84
2022-10-12T12:07:48.319Z,16.97
2022-10-12T12:11:03.456Z,16.90
2022-10-12T12:13:31.731Z,16.86
2022-10-12T12:16:33.915Z,16.86
2022-10-12T12:19:41.179Z,16.91
2022-10-12T12:22:34.225Z,17.02
2022-10-12T12:25:05.971Z,17.08
2022-10-12T12:27:41.313Z,17.10
2022-10-12T12:30:29.290Z,17.12
2022-10-12T12:32:59.575Z,17.15
2022-10-12T12:35:35.271Z,17.21
2022-10-12T12:38:08.277Z,17.32
2022-10-12T12:40:37.255Z,17.31
2022-10-12T12:43:36.167Z,17.36
2022-10-12T12:46:06.123Z,17.41
2022-10-12T12:49:05.426Z,17.40
2022-10-12T12:51:43.644Z,17.33
2022-10-12T12:54:19.480Z,17.43
2022-10-12T12:57:12.706Z,17.38
2022-10-12T13:00:20.122Z,17.37
2022-10-12T13:03:21.845Z,17.32
2022-10-12T13:06:22.687Z,17.37
2022-10-12T13:09:18.156Z,17.48
2022-10-12T13:12:13.460Z,17.33
2022-10-12T13:14:55.795Z,17.37
2022-10-12T13:17:47.904Z,17.41
2022-10-12T13:20:20.854Z,17.50
2022-10-12T13:22:50.987Z,17.43
2022-10-12T13:25:28.641Z,17.45
2022-10-12T13:27:58.001Z,17.54
2022-10-12T13:30:33.878Z,17.62
2022-10-12T13:33:08.073Z,17.70
2022-10-12T13:35:41.402Z,17.65
2022-10-12T13:38:21.169Z,17.68
2022-10-12T13:40:54.613Z,17.76
2022-10-12T13:43:29.992Z,17.84
2022-10-12T13:45:58.315Z,17.74
2022-10-12T13:48:53.868Z,17.65
2022-10-12T13:51:25.243Z,17.50
2022-10-12T13:53:53.538Z,17.41
2022-10-12T13:56:26.327Z,17.28
2022-10-12T13:59:00.142Z,17.23
2022-10-12T14:01:28.377Z,17.16
2022-10-12T14:04:05.598Z,17.13
2022-10-12T14:06:37.133Z,17.10
2022-10-12T14:09:10.826Z,17.12
2022-10-12T14:11:40.176Z,17.19
2022-10-12T14:14:18.537Z,17.14
2022-10-12T14:16:46.669Z,17.08
2022-10-12T14:19:33.192Z,17.02
2022-10-12T14:22:02.663Z,16.99
2022-10-12T14:24:31.320Z,17.05
2022-10-12T14:27:01.063Z,17.22
2022-10-12T14:29:41.683Z,17.43
2022-10-12T14:32:38.338Z,17.31
2022-10-12T14:35:21.875Z,17.28
2022-10-12T14:37:52.691Z,17.20
2022-10-12T14:40:44.320Z,17.23
2022-10-12T14:43:24.201Z,17.22
2022-10-12T14:45:53.248Z,17.21
2022-10-12T14:48:23.572Z,17.23
2022-10-12T14:50:59.544Z,17.20
2022-10-12T14:53:29.553Z,17.16
2022-10-12T14:55:57.342Z,17.12
2022-10-12T14:58:26.063Z,17.04
2022-10-12T15:00:54.137Z,17.02
2022-10-12T15:03:22.120Z,17.04
2022-10-12T15:05:50.088Z,17.02
2022-10-12T15:08:19.273Z,17.00
2022-10-12T15:10:47.176Z,16.98
2022-10-12T15:13:15.290Z,16.93
2022-10-12T15:15:46.921Z,16.92
2022-10-12T15:18:14.948Z,16.91
2022-10-12T15:20:46.905Z,16.86
2022-10-12T15:23:17.138Z,16.82
2022-10-12T15:25:50.506Z,16.78
2022-10-12T15:28:19.123Z,16.77
2022-10-12T15:31:15.315Z,16.76
2022-10-12T15:33:35.067Z,16.70
2022-10-12T15:36:03.351Z,16.64
2022-10-12T15:38:31.372Z,16.63
2022-10-12T15:41:00.733Z,16.63
2022-10-12T15:43:28.748Z,16.57
2022-10-12T15:45:57.524Z,16.48
2022-10-12T15:48:27.787Z,16.48
2022-10-12T15:50:57.392Z,16.47
2022-10-12T15:53:27.501Z,16.46
2022-10-12T15:55:56.737Z,16.40
2022-10-12T15:58:26.006Z,16.33
2022-10-12T16:00:54.398Z,16.25
2022-10-12T16:03:26.019Z,16.19
2022-10-12T16:05:54.641Z,16.19
2022-10-12T16:08:22.752Z,16.16
2022-10-12T16:10:50.862Z,16.06
2022-10-12T16:13:18.898Z,16.00
2022-10-12T16:15:48.186Z,15.93
2022-10-12T16:18:16.411Z,15.88
2022-10-12T16:20:47.639Z,15.87
2022-10-12T16:23:22.989Z,15.80
2022-10-12T16:25:51.249Z,15.74
2022-10-12T16:28:19.378Z,15.67
2022-10-12T16:30:49.780Z,15.65
2022-10-12T16:33:18.329Z,15.59
2022-10-12T16:35:49.764Z,15.53
2022-10-12T16:38:20.108Z,15.45
2022-10-12T16:40:50.101Z,15.43
2022-10-12T16:43:19.522Z,15.38
2022-10-12T16:45:56.728Z,15.31
2022-10-12T16:48:24.710Z,15.20
2022-10-12T16:50:52.574Z,15.12
2022-10-12T16:53:20.512Z,15.07
2022-10-12T16:55:49.071Z,15.00
2022-10-12T16:58:16.944Z,14.95
2022-10-12T17:00:45.018Z,14.93
2022-10-12T17:03:14.459Z,14.94
2022-10-12T17:05:42.335Z,14.93
2022-10-12T17:08:15.003Z,14.91
2022-10-12T17:10:44.164Z,14.87
2022-10-12T17:13:13.588Z,14.80
2022-10-12T17:15:42.508Z,14.76
2022-10-12T17:18:10.783Z,14.72
2022-10-12T17:20:40.050Z,14.70
2022-10-12T17:23:07.852Z,14.63
2022-10-12T17:25:35.616Z,14.60
2022-10-12T17:28:03.519Z,14.63
2022-10-12T17:30:31.445Z,14.57
2022-10-12T17:32:59.403Z,14.52
2022-10-12T17:35:27.334Z,14.53
2022-10-12T17:37:56.501Z,14.46
2022-10-12T17:40:24.265Z,14.39
2022-10-12T17:42:52.135Z,14.32
2022-10-12T17:45:19.929Z,14.32
2022-10-12T17:47:49.244Z,14.27
2022-10-12T17:50:17.248Z,14.23
2022-10-12T17:52:45.741Z,14.13
2022-10-12T17:55:29.934Z,14.09
2022-10-12T17:58:03.324Z,14.04
2022-10-12T18:00:31.644Z,14.03
2022-10-12T18:02:59.923Z,14.03
2022-10-12T18:05:28.239Z,13.99
2022-10-12T18:07:56.136Z,13.94
2022-10-12T18:10:27.770Z,13.91
2022-10-12T18:12:56.691Z,13.83
2022-10-12T18:15:24.642Z,13.81
2022-10-12T18:17:52.509Z,13.82
2022-10-12T18:20:20.480Z,13.71
2022-10-12T18:22:48.344Z,13.69
2022-10-12T18:25:16.978Z,13.66
2022-10-12T18:27:47.050Z,13.63
2022-10-12T18:30:15.068Z,13.57
2022-10-12T18:32:42.995Z,13.54
2022-10-12T18:35:11.161Z,13.50
2022-10-12T18:37:39.056Z,13.42
2022-10-12T18:40:07.825Z,13.36
2022-10-12T18:42:35.653Z,13.32
2022-10-12T18:45:05.322Z,13.31
2022-10-12T18:47:33.175Z,13.26
2022-10-12T18:50:01.138Z,13.20
2022-10-12T18:52:29.298Z,13.20
2022-10-12T18:54:57.091Z,13.21
2022-10-12T18:57:30.183Z,13.15
2022-10-12T18:59:58.990Z,13.15
2022-10-12T19:02:28.351Z,13.11
2022-10-12T19:04:56.937Z,13.07
2022-10-12T19:07:25.248Z,13.03
2022-10-12T19:09:53.396Z,12.98
2022-10-12T19:12:21.504Z,12.92
2022-10-12T19:14:49.983Z,12.89
2022-10-12T19:17:18.121Z,12.89
2022-10-12T19:19:47.444Z,12.85
2022-10-12T19:22:15.499Z,12.83
2022-10-12T19:24:44.090Z,12.81
2022-10-12T19:27:12.246Z,12.81
2022-10-12T19:29:43.571Z,12.75
2022-10-12T19:32:13.715Z,12.76
2022-10-12T19:34:41.584Z,12.70
2022-10-12T19:37:10.806Z,12.77
2022-10-12T19:39:39.063Z,12.72
2022-10-12T19:42:06.951Z,12.69
2022-10-12T19:44:34.846Z,12.69
2022-10-12T19:47:03.663Z,12.62
2022-10-12T19:49:35.848Z,12.59
2022-10-12T19:52:05.471Z,12.54
2022-10-12T19:54:36.357Z,12.53
2022-10-12T19:57:04.365Z,12.51
2022-10-12T19:59:32.288Z,12.50
2022-10-12T20:02:00.101Z,12.47
2022-10-12T20:04:29.557Z,12.48
2022-10-12T20:06:57.572Z,12.45
2022-10-12T20:09:25.379Z,12.46
2022-10-12T20:11:54.648Z,12.46
2022-10-12T20:14:22.562Z,12.48
2022-10-12T20:16:50.473Z,12.47
2022-10-12T20:19:18.341Z,12.40
2022-10-12T20:21:46.480Z,12.35
2022-10-12T20:24:14.422Z,12.30
2022-10-12T20:26:42.336Z,12.30
2022-10-12T20:29:11.855Z,12.29
2022-10-12T20:31:39.729Z,12.22
2022-10-12T20:34:10.218Z,12.23
2022-10-12T20:36:38.227Z,12.24
2022-10-12T20:39:06.256Z,12.22
2022-10-12T20:41:34.333Z,12.18
2022-10-12T20:44:02.592Z,12.19
2022-10-12T20:46:31.879Z,12.21
2022-10-12T20:49:02.277Z,12.22
2022-10-12T20:51:33.104Z,12.21
2022-10-12T20:54:01.629Z,12.25
2022-10-12T20:56:32.762Z,12.23
2022-10-12T20:59:01.740Z,12.23
2022-10-12T21:01:30.965Z,12.20
2022-10-12T21:03:59.061Z,12.15
2022-10-12T21:06:26.946Z,12.17
2022-10-12T21:08:57.169Z,12.14
2022-10-12T21:11:25.830Z,12.15
2022-10-12T21:13:54.249Z,12.19
2022-10-12T21:16:22.161Z,12.15
2022-10-12T21:18:54.807Z,12.18
2022-10-12T21:21:24.113Z,12.13
2022-10-12T21:23:54.414Z,12.15
2022-10-12T21:26:24.013Z,12.14
2022-10-12T21:28:52.153Z,12.18
2022-10-12T21:31:20.985Z,12.18
2022-10-12T21:33:49.092Z,12.14
2022-10-12T21:36:20.778Z,12.11
2022-10-12T21:38:49.098Z,12.11
2022-10-12T21:41:20.642Z,12.11
2022-10-12T21:43:50.282Z,12.08
2022-10-12T21:46:21.157Z,12.03
2022-10-12T21:48:49.873Z,12.01
2022-10-12T21:51:19.785Z,12.02
2022-10-12T21:53:47.875Z,12.05
2022-10-12T21:56:18.025Z,12.02
2022-10-12T21:58:46.662Z,12.07
2022-10-12T22:01:16.540Z,12.06
2022-10-12T22:03:45.581Z,12.04
2022-10-12T22:06:15.295Z,12.07
2022-10-12T22:08:45.109Z,12.07
2022-10-12T22:11:13.880Z,12.10
2022-10-12T22:13:41.944Z,12.07
2022-10-12T22:16:12.278Z,12.07
2022-10-12T22:18:41.033Z,12.09
2022-10-12T22:21:11.817Z,12.04
2022-10-12T22:23:39.802Z,12.01
2022-10-12T22:26:12.239Z,12.01
2022-10-12T22:28:40.157Z,11.95
2022-10-12T22:31:08.746Z,11.93
2022-10-12T22:33:37.075Z,11.92
2022-10-12T22:36:06.655Z,11.94
2022-10-12T22:38:35.874Z,11.92
2022-10-12T22:41:06.220Z,11.92
2022-10-12T22:43:36.174Z,11.91
2022-10-12T22:46:05.224Z,11.89
2022-10-12T22:48:33.689Z,11.94
2022-10-12T22:51:01.553Z,11.93
2022-10-12T22:53:30.649Z,11.95
2022-10-12T22:56:00.917Z,11.97
2022-10-12T22:58:28.941Z,11.93
2022-10-12T23:01:03.885Z,12.03
2022-10-12T23:03:32.389Z,12.08
2022-10-12T23:06:00.839Z,12.13
2022-10-12T23:08:31.199Z,12.14
2022-10-12T23:11:04.890Z,12.09
2022-10-12T23:13:33.190Z,11.98
2022-10-12T23:16:07.575Z,12.03
2022-10-12T23:18:35.847Z,12.02
2022-10-12T23:21:06.001Z,12.06
2022-10-12T23:23:34.570Z,12.01
2022-10-12T23:26:04.146Z,12.04
2022-10-12T23:28:32.248Z,12.04
2022-10-12T23:31:00.310Z,12.01
2022-10-12T23:33:29.912Z,11.94
2022-10-12T23:35:58.395Z,12.00
2022-10-12T23:38:27.340Z,12.06
2022-10-12T23:40:55.334Z,12.07
2022-10-12T23:43:23.244Z,12.12
2022-10-12T23:45:51.468Z,12.10
2022-10-12T23:48:19.470Z,12.09
2022-10-12T23:50:49.081Z,12.04
2022-10-12T23:53:16.895Z,12.00
2022-10-12T23:55:45.058Z,12.02
2022-10-12T23:58:12.972Z,12.04
